Acadie — FV7722 — position and weather

sailwx.info

Track history (hours):
 
Tides and Currents Weather Stations Pressure Air Temp Water Temp Dewpoint Dewpoint Depression Visibility Wind Speed Wind Dir Waves Ship Positions

Acadie

Last reported at 2014-Jul-23 02:33 UTC. Time now 2014-Jul-23 03:17 UTC.
Position N 47°26' W 003°04'.

Length 45 m.

Type: Passenger vessel. MMSI: 227002780.

Date/timePositionNaut miles runAvg speedWind from/ knotsBaromVisibWave heightAir tempDewpointWater temp
2014-Jul-23 02:33N 47°26' W 003°04'3 0.2
2014-Jul-22 08:33N 47°29' W 003°05'2 1.8
2014-Jul-22 07:30N 47°29' W 003°07'7 6.9
2014-Jul-22 06:33N 47°22' W 003°09'1 1.3
2014-Jul-22 05:31N 47°21' W 003°09'5 4.5
2014-Jul-22 04:25N 47°26' W 003°08'3 3.4
2014-Jul-22 03:33N 47°29' W 003°07'3 3.4
2014-Jul-22 02:33N 47°26' W 003°04'3 0.2
2014-Jul-21 08:34N 47°29' W 003°05'2 1.5
2014-Jul-21 07:30N 47°29' W 003°07'8 3.4
2014-Jul-21 05:13N 47°21' W 003°09'5 5.4
2014-Jul-21 04:19N 47°26' W 003°08'3 3.7
2014-Jul-21 03:30N 47°29' W 003°07'3 2.9
2014-Jul-21 02:33N 47°26' W 003°06'3 0.2
2014-Jul-20 13:33N 47°28' W 003°03'8 7.3
2014-Jul-20 12:25N 47°21' W 003°09'6 7.2
2014-Jul-20 11:33N 47°27' W 003°07'1 1.3
2014-Jul-20 10:33N 47°28' W 003°07'7 5.3
2014-Jul-20 09:09N 47°21' W 003°09'3 5.4
2014-Jul-20 08:32N 47°24' W 003°08'5 4.6
2014-Jul-20 07:33N 47°29' W 003°07'2 2.1
2014-Jul-20 06:33N 47°29' W 003°04'1 0.1
2014-Jul-19 13:33N 47°28' W 003°03'8 7.1
2014-Jul-19 12:23N 47°21' W 003°09'6 7.1
2014-Jul-19 11:33N 47°27' W 003°08'1 1.5
2014-Jul-19 10:34N 47°28' W 003°07'7 5.2
2014-Jul-19 09:07N 47°21' W 003°09'7 7.6
2014-Jul-19 08:13N 47°28' W 003°08'1 1.2
2014-Jul-19 07:27N 47°29' W 003°07'8 7.8
2014-Jul-19 06:27N 47°21' W 003°09'0 0.1
2014-Jul-19 05:33N 47°21' W 003°09'2 2.2
2014-Jul-19 04:31N 47°23' W 003°08'6 5.9
2014-Jul-19 03:33N 47°29' W 003°07'3 3.0
2014-Jul-19 02:34N 47°26' W 003°06'3 0.2
2014-Jul-18 09:05N 47°29' W 003°06'4 7.0
2014-Jul-18 08:33N 47°27' W 003°02'4 4.0
2014-Jul-18 07:33N 47°29' W 003°07'8 5.5
2014-Jul-18 06:07N 47°21' W 003°09'0 0.0
2014-Jul-18 05:17N 47°21' W 003°09'4 5.4
2014-Jul-18 04:33N 47°25' W 003°08'4 3.8
2014-Jul-18 03:31N 47°29' W 003°07'3 3.6
2014-Jul-18 02:33N 47°26' W 003°04'2 0.1
2014-Jul-17 08:33N 47°27' W 003°02'4 3.5
2014-Jul-17 07:30N 47°29' W 003°07'5 5.7
2014-Jul-17 06:33N 47°23' W 003°08'3 2.5
2014-Jul-17 05:30N 47°21' W 003°09'4 4.0
2014-Jul-17 04:33N 47°25' W 003°08'4 4.1
2014-Jul-17 03:33N 47°29' W 003°07'4 3.7
2014-Jul-17 02:34N 47°27' W 003°03'3 0.2
2014-Jul-16 09:14N 47°29' W 003°06'3 5.1
2014-Jul-16 08:33N 47°26' W 003°04'3 3.3
2014-Jul-16 07:32N 47°29' W 003°07'7 6.7
2014-Jul-16 06:33N 47°22' W 003°09'1 1.3
2014-Jul-16 05:32N 47°21' W 003°09'4 4.5
2014-Jul-16 04:33N 47°25' W 003°08'4 3.4
2014-Jul-16 03:31N 47°29' W 003°07'4 3.7
2014-Jul-16 02:33N 47°26' W 003°03'2 0.1
2014-Jul-15 08:33N 47°28' W 003°04'2 1.6
2014-Jul-15 07:09N 47°29' W 003°07'4 6.6
2014-Jul-15 06:33N 47°25' W 003°08'4 3.2
2014-Jul-15 05:19N 47°21' W 003°09'2 2.8
2014-Jul-15 04:32N 47°23' W 003°08'6 5.7
2014-Jul-15 03:32N 47°29' W 003°07'3 3.5
2014-Jul-15 02:33N 47°26' W 003°04'  
Track history (hours):
 
Tides and Currents Weather Stations Pressure Air Temp Water Temp Dewpoint Dewpoint Depression Visibility Wind Speed Wind Dir Waves Ship Positions

Acadie

Last reported at 2014-Jul-23 02:33 UTC. Time now 2014-Jul-23 03:17 UTC.
Position N 47°26' W 003°04'.

Length 45 m.

Type: Passenger vessel. MMSI: 227002780.

Date/timePositionNaut miles runAvg speedWind from/ knotsBaromVisibWave heightAir tempDewpointWater temp
2014-Jul-23 02:33N 47°26' W 003°04'3 0.2
2014-Jul-22 08:33N 47°29' W 003°05'2 1.8
2014-Jul-22 07:30N 47°29' W 003°07'7 6.9
2014-Jul-22 06:33N 47°22' W 003°09'1 1.3
2014-Jul-22 05:31N 47°21' W 003°09'5 4.5
2014-Jul-22 04:25N 47°26' W 003°08'3 3.4
2014-Jul-22 03:33N 47°29' W 003°07'3 3.4
2014-Jul-22 02:33N 47°26' W 003°04'3 0.2
2014-Jul-21 08:34N 47°29' W 003°05'2 1.5
2014-Jul-21 07:30N 47°29' W 003°07'8 3.4
2014-Jul-21 05:13N 47°21' W 003°09'5 5.4
2014-Jul-21 04:19N 47°26' W 003°08'3 3.7
2014-Jul-21 03:30N 47°29' W 003°07'3 2.9
2014-Jul-21 02:33N 47°26' W 003°06'3 0.2
2014-Jul-20 13:33N 47°28' W 003°03'8 7.3
2014-Jul-20 12:25N 47°21' W 003°09'6 7.2
2014-Jul-20 11:33N 47°27' W 003°07'1 1.3
2014-Jul-20 10:33N 47°28' W 003°07'7 5.3
2014-Jul-20 09:09N 47°21' W 003°09'3 5.4
2014-Jul-20 08:32N 47°24' W 003°08'5 4.6
2014-Jul-20 07:33N 47°29' W 003°07'2 2.1
2014-Jul-20 06:33N 47°29' W 003°04'1 0.1
2014-Jul-19 13:33N 47°28' W 003°03'8 7.1
2014-Jul-19 12:23N 47°21' W 003°09'6 7.1
2014-Jul-19 11:33N 47°27' W 003°08'1 1.5
2014-Jul-19 10:34N 47°28' W 003°07'7 5.2
2014-Jul-19 09:07N 47°21' W 003°09'7 7.6
2014-Jul-19 08:13N 47°28' W 003°08'1 1.2
2014-Jul-19 07:27N 47°29' W 003°07'8 7.8
2014-Jul-19 06:27N 47°21' W 003°09'0 0.1
2014-Jul-19 05:33N 47°21' W 003°09'2 2.2
2014-Jul-19 04:31N 47°23' W 003°08'6 5.9
2014-Jul-19 03:33N 47°29' W 003°07'3 3.0
2014-Jul-19 02:34N 47°26' W 003°06'3 0.2
2014-Jul-18 09:05N 47°29' W 003°06'4 7.0
2014-Jul-18 08:33N 47°27' W 003°02'4 4.0
2014-Jul-18 07:33N 47°29' W 003°07'8 5.5
2014-Jul-18 06:07N 47°21' W 003°09'0 0.0
2014-Jul-18 05:17N 47°21' W 003°09'4 5.4
2014-Jul-18 04:33N 47°25' W 003°08'4 3.8
2014-Jul-18 03:31N 47°29' W 003°07'3 3.6
2014-Jul-18 02:33N 47°26' W 003°04'2 0.1
2014-Jul-17 08:33N 47°27' W 003°02'4 3.5
2014-Jul-17 07:30N 47°29' W 003°07'5 5.7
2014-Jul-17 06:33N 47°23' W 003°08'3 2.5
2014-Jul-17 05:30N 47°21' W 003°09'4 4.0
2014-Jul-17 04:33N 47°25' W 003°08'4 4.1
2014-Jul-17 03:33N 47°29' W 003°07'4 3.7
2014-Jul-17 02:34N 47°27' W 003°03'3 0.2
2014-Jul-16 09:14N 47°29' W 003°06'3 5.1
2014-Jul-16 08:33N 47°26' W 003°04'3 3.3
2014-Jul-16 07:32N 47°29' W 003°07'7 6.7
2014-Jul-16 06:33N 47°22' W 003°09'1 1.3
2014-Jul-16 05:32N 47°21' W 003°09'4 4.5
2014-Jul-16 04:33N 47°25' W 003°08'4 3.4
2014-Jul-16 03:31N 47°29' W 003°07'4 3.7
2014-Jul-16 02:33N 47°26' W 003°03'2 0.1
2014-Jul-15 08:33N 47°28' W 003°04'2 1.6
2014-Jul-15 07:09N 47°29' W 003°07'4 6.6
2014-Jul-15 06:33N 47°25' W 003°08'4 3.2
2014-Jul-15 05:19N 47°21' W 003°09'2 2.8
2014-Jul-15 04:32N 47°23' W 003°08'6 5.7
2014-Jul-15 03:32N 47°29' W 003°07'3 3.5
2014-Jul-15 02:33N 47°26' W 003°04'  

Dump ship's entire track history